Ayer, MA

4:35 AM EDT on July 06, 2015 (GMT -0400)
Ayer Center | | Change Station
CLOSE
Current Station
Personal Weather Station
Location: Ayer, MA
Elevation: 230 ft
Nearby Weather Stations

Elev 230 ft 42.56 °N, 71.59 °W | Updated 8 seconds ago

Clear
Clear
59.2 °F
Feels Like 59.2 °F
N
0.0
Wind Variable Wind from SW
Gusts 0.0 mph

Today
High -- | Low -- °F
--% Chance of Precip.
Yesterday
High -- | Low -- °F
Precip. -- in
5:15 AM 8:26 PM
Waning Gibbous, 77% visible
Pressure 30.16 in
Visibility 8.0 miles
Clouds Clear
Dew Point 59 °F
Humidity 99%
Rainfall 0.00 in
Snow Depth Not available.
UV 0 out of 12
Pollen 5.10 out of 12
Air Quality Not available.
Flu Activity Not available.
METAR KFIT 060752Z AUTO 00000KT 8SM CLR 16/14 A3016 RMK AO2 SLP211 T01560139

More Conditions Fewer Conditions

Pressure 30.16 in
Visibility 8.0 miles
Clouds Clear
Dew Point 59 °F
Humidity 99%
Rainfall 0.00 in
Snow Depth Not available.
UV 0 out of 12
Pollen 5.10 out of 12
Air Quality Not available.
Flu Activity Not available.
METAR KFIT 060752Z AUTO 00000KT 8SM CLR 16/14 A3016 RMK AO2 SLP211 T01560139

More Conditions Fewer Conditions

10-Day Weather Forecast

×

Almanac

Astronomy

Jul. 06, 2015 Rise Set
Actual Time
Civil Twilight
Nautical Twilight
Astronomical Twilight
Moon
Length of Visible Light
Length of Day
Tomorrow will be .
, % of the Moon is Illuminated

Today's Extremes

State Highs State Lows

Community

WunderPhotos

Upload Photos

1,835,510 photos uploaded!

WunderBlogs® & News

Nearby

Air Quality

  Air Quality AQ Index Pollutant
Not available.

Snow Depth

Station Depth Elevation

Earthquake Activity

City Distance Mag. Time & Date
Minimum magnitude displayed is 2.5.

Coastal Water Temperatures

Place Temperature

Stations

Nearby Weather Stations

Station Location Temp. Windchill Dew Point Humidity Wind Precip. Elev Updated Type